sensor_id;sensor_type;location;lat;lon;timestamp;P1;durP1;ratioP1;P2;durP2;ratioP2
74523;SDS011;63074;44.696;10.358;2022-10-16T00:01:21;18.00;;;11.80;;
74523;SDS011;63074;44.696;10.358;2022-10-16T00:03:50;20.75;;;12.25;;
74523;SDS011;63074;44.696;10.358;2022-10-16T00:06:18;20.23;;;13.65;;
74523;SDS011;63074;44.696;10.358;2022-10-16T00:08:44;19.00;;;12.23;;
74523;SDS011;63074;44.696;10.358;2022-10-16T00:11:11;16.08;;;12.18;;
74523;SDS011;63074;44.696;10.358;2022-10-16T00:13:40;17.23;;;11.45;;
74523;SDS011;63074;44.696;10.358;2022-10-16T00:16:06;18.38;;;11.02;;
74523;SDS011;63074;44.696;10.358;2022-10-16T00:18:33;19.70;;;11.45;;
74523;SDS011;63074;44.696;10.358;2022-10-16T00:21:05;15.38;;;10.57;;
74523;SDS011;63074;44.696;10.358;2022-10-16T00:23:33;16.65;;;10.27;;
74523;SDS011;63074;44.696;10.358;2022-10-16T00:26:00;15.60;;;11.60;;
74523;SDS011;63074;44.696;10.358;2022-10-16T00:28:29;15.70;;;9.43;;
74523;SDS011;63074;44.696;10.358;2022-10-16T00:30:54;19.58;;;11.88;;
74523;SDS011;63074;44.696;10.358;2022-10-16T00:33:21;14.40;;;8.70;;
74523;SDS011;63074;44.696;10.358;2022-10-16T00:35:47;14.73;;;10.20;;
74523;SDS011;63074;44.696;10.358;2022-10-16T00:38:13;15.05;;;9.85;;
74523;SDS011;63074;44.696;10.358;2022-10-16T00:40:39;11.52;;;7.90;;
74523;SDS011;63074;44.696;10.358;2022-10-16T00:43:48;14.60;;;9.30;;
74523;SDS011;63074;44.696;10.358;2022-10-16T00:48:39;12.95;;;8.00;;
74523;SDS011;63074;44.696;10.358;2022-10-16T00:51:05;11.90;;;6.80;;
74523;SDS011;63074;44.696;10.358;2022-10-16T00:53:32;10.98;;;7.30;;
74523;SDS011;63074;44.696;10.358;2022-10-16T00:55:58;9.82;;;7.43;;
74523;SDS011;63074;44.696;10.358;2022-10-16T00:58:23;10.75;;;7.65;;
74523;SDS011;63074;44.696;10.358;2022-10-16T01:00:49;9.73;;;7.53;;
74523;SDS011;63074;44.696;10.358;2022-10-16T01:03:22;10.70;;;7.72;;
74523;SDS011;63074;44.696;10.358;2022-10-16T01:05:51;10.75;;;7.55;;
74523;SDS011;63074;44.696;10.358;2022-10-16T01:08:32;9.02;;;7.20;;
74523;SDS011;63074;44.696;10.358;2022-10-16T01:11:08;11.15;;;6.82;;
74523;SDS011;63074;44.696;10.358;2022-10-16T01:13:43;11.23;;;6.63;;
74523;SDS011;63074;44.696;10.358;2022-10-16T01:19:06;10.27;;;7.32;;
74523;SDS011;63074;44.696;10.358;2022-10-16T01:21:42;11.27;;;7.80;;
74523;SDS011;63074;44.696;10.358;2022-10-16T01:27:09;12.60;;;8.00;;
74523;SDS011;63074;44.696;10.358;2022-10-16T01:29:49;14.68;;;9.82;;
74523;SDS011;63074;44.696;10.358;2022-10-16T01:32:36;15.25;;;10.52;;
74523;SDS011;63074;44.696;10.358;2022-10-16T01:35:07;17.63;;;10.65;;
74523;SDS011;63074;44.696;10.358;2022-10-16T01:40:28;17.10;;;11.35;;
74523;SDS011;63074;44.696;10.358;2022-10-16T01:43:01;18.58;;;11.93;;
74523;SDS011;63074;44.696;10.358;2022-10-16T01:45:31;18.98;;;12.13;;
74523;SDS011;63074;44.696;10.358;2022-10-16T01:47:58;18.63;;;11.82;;
74523;SDS011;63074;44.696;10.358;2022-10-16T01:50:29;19.90;;;12.68;;
74523;SDS011;63074;44.696;10.358;2022-10-16T01:52:57;22.67;;;13.27;;
74523;SDS011;63074;44.696;10.358;2022-10-16T01:55:26;18.65;;;13.18;;
74523;SDS011;63074;44.696;10.358;2022-10-16T01:57:56;20.95;;;13.23;;
74523;SDS011;63074;44.696;10.358;2022-10-16T02:00:25;21.65;;;13.32;;
74523;SDS011;63074;44.696;10.358;2022-10-16T02:02:53;23.10;;;14.15;;
74523;SDS011;63074;44.696;10.358;2022-10-16T02:08:26;20.95;;;13.23;;
74523;SDS011;63074;44.696;10.358;2022-10-16T02:10:55;19.65;;;12.93;;
74523;SDS011;63074;44.696;10.358;2022-10-16T02:13:24;21.88;;;13.30;;
74523;SDS011;63074;44.696;10.358;2022-10-16T02:15:55;20.17;;;13.02;;
74523;SDS011;63074;44.696;10.358;2022-10-16T02:18:20;19.98;;;12.75;;
74523;SDS011;63074;44.696;10.358;2022-10-16T02:20:57;21.52;;;13.50;;
74523;SDS011;63074;44.696;10.358;2022-10-16T02:23:50;17.80;;;12.45;;
74523;SDS011;63074;44.696;10.358;2022-10-16T02:26:33;20.20;;;12.02;;
74523;SDS011;63074;44.696;10.358;2022-10-16T02:29:05;17.58;;;11.18;;
74523;SDS011;63074;44.696;10.358;2022-10-16T02:31:35;13.57;;;10.52;;
74523;SDS011;63074;44.696;10.358;2022-10-16T02:34:03;15.70;;;8.85;;
74523;SDS011;63074;44.696;10.358;2022-10-16T02:36:32;13.63;;;9.25;;
74523;SDS011;63074;44.696;10.358;2022-10-16T02:38:59;12.85;;;10.02;;
74523;SDS011;63074;44.696;10.358;2022-10-16T02:41:26;14.52;;;8.82;;
74523;SDS011;63074;44.696;10.358;2022-10-16T02:43:52;15.43;;;8.18;;
74523;SDS011;63074;44.696;10.358;2022-10-16T02:46:18;12.90;;;8.10;;
74523;SDS011;63074;44.696;10.358;2022-10-16T02:48:44;12.82;;;8.27;;
74523;SDS011;63074;44.696;10.358;2022-10-16T02:51:09;12.05;;;7.97;;
74523;SDS011;63074;44.696;10.358;2022-10-16T02:53:35;12.45;;;8.43;;
74523;SDS011;63074;44.696;10.358;2022-10-16T02:56:00;10.02;;;6.82;;
74523;SDS011;63074;44.696;10.358;2022-10-16T02:58:26;12.48;;;8.65;;
74523;SDS011;63074;44.696;10.358;2022-10-16T03:00:52;11.52;;;7.38;;
74523;SDS011;63074;44.696;10.358;2022-10-16T03:03:17;13.00;;;6.90;;
74523;SDS011;63074;44.696;10.358;2022-10-16T03:05:43;10.35;;;7.28;;
74523;SDS011;63074;44.696;10.358;2022-10-16T03:08:11;9.90;;;6.20;;
74523;SDS011;63074;44.696;10.358;2022-10-16T03:10:39;10.65;;;6.85;;
74523;SDS011;63074;44.696;10.358;2022-10-16T03:13:04;9.65;;;4.95;;
74523;SDS011;63074;44.696;10.358;2022-10-16T03:15:30;14.25;;;6.70;;
74523;SDS011;63074;44.696;10.358;2022-10-16T03:17:58;9.52;;;7.28;;
74523;SDS011;63074;44.696;10.358;2022-10-16T03:20:24;11.10;;;6.55;;
74523;SDS011;63074;44.696;10.358;2022-10-16T03:22:50;8.75;;;6.32;;
74523;SDS011;63074;44.696;10.358;2022-10-16T03:25:16;9.85;;;6.72;;
74523;SDS011;63074;44.696;10.358;2022-10-16T03:27:41;8.85;;;6.25;;
74523;SDS011;63074;44.696;10.358;2022-10-16T03:30:07;10.48;;;7.28;;
74523;SDS011;63074;44.696;10.358;2022-10-16T03:32:33;8.00;;;5.80;;
74523;SDS011;63074;44.696;10.358;2022-10-16T03:34:58;10.80;;;6.28;;
74523;SDS011;63074;44.696;10.358;2022-10-16T03:37:24;7.93;;;6.03;;
74523;SDS011;63074;44.696;10.358;2022-10-16T03:39:50;9.65;;;6.80;;
74523;SDS011;63074;44.696;10.358;2022-10-16T03:42:16;8.70;;;5.18;;
74523;SDS011;63074;44.696;10.358;2022-10-16T03:44:41;8.57;;;6.30;;
74523;SDS011;63074;44.696;10.358;2022-10-16T03:47:07;8.55;;;5.57;;
74523;SDS011;63074;44.696;10.358;2022-10-16T03:49:32;10.05;;;6.20;;
74523;SDS011;63074;44.696;10.358;2022-10-16T03:51:58;9.23;;;6.68;;
74523;SDS011;63074;44.696;10.358;2022-10-16T03:54:23;12.45;;;6.18;;
74523;SDS011;63074;44.696;10.358;2022-10-16T03:56:48;11.88;;;7.93;;
74523;SDS011;63074;44.696;10.358;2022-10-16T03:59:14;9.90;;;7.30;;
74523;SDS011;63074;44.696;10.358;2022-10-16T04:01:39;9.18;;;7.07;;
74523;SDS011;63074;44.696;10.358;2022-10-16T04:04:05;10.70;;;7.07;;
74523;SDS011;63074;44.696;10.358;2022-10-16T04:06:31;10.88;;;7.22;;
74523;SDS011;63074;44.696;10.358;2022-10-16T04:08:56;12.75;;;7.03;;
74523;SDS011;63074;44.696;10.358;2022-10-16T04:11:22;10.70;;;7.68;;
74523;SDS011;63074;44.696;10.358;2022-10-16T04:13:47;10.57;;;6.95;;
74523;SDS011;63074;44.696;10.358;2022-10-16T04:16:13;16.25;;;7.72;;
74523;SDS011;63074;44.696;10.358;2022-10-16T04:18:39;14.55;;;8.60;;
74523;SDS011;63074;44.696;10.358;2022-10-16T04:21:05;14.13;;;7.65;;
74523;SDS011;63074;44.696;10.358;2022-10-16T04:23:31;12.57;;;8.30;;
74523;SDS011;63074;44.696;10.358;2022-10-16T04:25:57;15.80;;;8.60;;
74523;SDS011;63074;44.696;10.358;2022-10-16T04:28:22;13.52;;;8.55;;
74523;SDS011;63074;44.696;10.358;2022-10-16T04:30:48;13.30;;;7.88;;
74523;SDS011;63074;44.696;10.358;2022-10-16T04:33:16;14.38;;;9.32;;
74523;SDS011;63074;44.696;10.358;2022-10-16T04:35:41;13.20;;;8.98;;
74523;SDS011;63074;44.696;10.358;2022-10-16T04:38:07;13.85;;;9.45;;
74523;SDS011;63074;44.696;10.358;2022-10-16T04:40:33;15.73;;;8.70;;
74523;SDS011;63074;44.696;10.358;2022-10-16T04:43:01;11.48;;;8.75;;
74523;SDS011;63074;44.696;10.358;2022-10-16T04:45:27;13.73;;;8.48;;
74523;SDS011;63074;44.696;10.358;2022-10-16T04:47:53;14.25;;;8.38;;
74523;SDS011;63074;44.696;10.358;2022-10-16T04:50:22;13.63;;;8.18;;
74523;SDS011;63074;44.696;10.358;2022-10-16T04:52:47;13.20;;;9.00;;
74523;SDS011;63074;44.696;10.358;2022-10-16T04:55:13;12.82;;;8.90;;
74523;SDS011;63074;44.696;10.358;2022-10-16T04:57:38;12.20;;;8.38;;
74523;SDS011;63074;44.696;10.358;2022-10-16T05:00:04;12.13;;;7.22;;
74523;SDS011;63074;44.696;10.358;2022-10-16T05:02:30;9.38;;;6.55;;
74523;SDS011;63074;44.696;10.358;2022-10-16T05:04:55;8.73;;;6.60;;
74523;SDS011;63074;44.696;10.358;2022-10-16T05:07:21;9.40;;;5.30;;
74523;SDS011;63074;44.696;10.358;2022-10-16T05:09:48;9.25;;;5.93;;
74523;SDS011;63074;44.696;10.358;2022-10-16T05:12:14;7.25;;;5.95;;
74523;SDS011;63074;44.696;10.358;2022-10-16T05:14:39;6.85;;;5.32;;
74523;SDS011;63074;44.696;10.358;2022-10-16T05:17:05;9.25;;;5.55;;
74523;SDS011;63074;44.696;10.358;2022-10-16T05:19:30;7.43;;;5.05;;
74523;SDS011;63074;44.696;10.358;2022-10-16T05:21:55;6.72;;;4.05;;
74523;SDS011;63074;44.696;10.358;2022-10-16T05:24:21;7.40;;;3.92;;
74523;SDS011;63074;44.696;10.358;2022-10-16T05:26:46;9.45;;;5.78;;
74523;SDS011;63074;44.696;10.358;2022-10-16T05:29:12;7.80;;;5.72;;
74523;SDS011;63074;44.696;10.358;2022-10-16T05:31:37;8.15;;;5.57;;
74523;SDS011;63074;44.696;10.358;2022-10-16T05:34:03;8.18;;;5.53;;
74523;SDS011;63074;44.696;10.358;2022-10-16T05:36:28;8.43;;;5.35;;
74523;SDS011;63074;44.696;10.358;2022-10-16T05:38:54;8.23;;;5.55;;
74523;SDS011;63074;44.696;10.358;2022-10-16T05:41:19;7.03;;;5.40;;
74523;SDS011;63074;44.696;10.358;2022-10-16T05:43:47;6.65;;;5.43;;
74523;SDS011;63074;44.696;10.358;2022-10-16T05:46:12;8.07;;;5.40;;
74523;SDS011;63074;44.696;10.358;2022-10-16T05:48:38;7.72;;;5.32;;
74523;SDS011;63074;44.696;10.358;2022-10-16T05:51:07;7.00;;;4.43;;
74523;SDS011;63074;44.696;10.358;2022-10-16T05:53:36;6.88;;;4.88;;
74523;SDS011;63074;44.696;10.358;2022-10-16T05:56:03;5.97;;;4.68;;
74523;SDS011;63074;44.696;10.358;2022-10-16T05:58:30;6.80;;;4.63;;
74523;SDS011;63074;44.696;10.358;2022-10-16T06:00:57;7.28;;;4.07;;
74523;SDS011;63074;44.696;10.358;2022-10-16T06:03:24;7.28;;;4.30;;
74523;SDS011;63074;44.696;10.358;2022-10-16T06:05:52;4.70;;;3.78;;
74523;SDS011;63074;44.696;10.358;2022-10-16T06:08:19;6.80;;;4.28;;
74523;SDS011;63074;44.696;10.358;2022-10-16T06:10:45;5.63;;;4.22;;
74523;SDS011;63074;44.696;10.358;2022-10-16T06:13:14;5.30;;;2.83;;
74523;SDS011;63074;44.696;10.358;2022-10-16T06:15:41;6.10;;;3.58;;
74523;SDS011;63074;44.696;10.358;2022-10-16T06:18:10;5.35;;;4.47;;
74523;SDS011;63074;44.696;10.358;2022-10-16T06:20:35;4.57;;;3.95;;
74523;SDS011;63074;44.696;10.358;2022-10-16T06:23:02;5.22;;;3.88;;
74523;SDS011;63074;44.696;10.358;2022-10-16T06:25:29;5.38;;;3.55;;
74523;SDS011;63074;44.696;10.358;2022-10-16T06:27:55;5.18;;;4.05;;
74523;SDS011;63074;44.696;10.358;2022-10-16T06:30:20;5.50;;;4.40;;
74523;SDS011;63074;44.696;10.358;2022-10-16T06:32:45;9.45;;;3.83;;
74523;SDS011;63074;44.696;10.358;2022-10-16T06:35:11;6.78;;;3.92;;
74523;SDS011;63074;44.696;10.358;2022-10-16T06:37:36;5.68;;;4.00;;
74523;SDS011;63074;44.696;10.358;2022-10-16T06:40:02;6.88;;;4.15;;
74523;SDS011;63074;44.696;10.358;2022-10-16T06:42:29;6.88;;;3.25;;
74523;SDS011;63074;44.696;10.358;2022-10-16T06:44:54;3.88;;;3.42;;
74523;SDS011;63074;44.696;10.358;2022-10-16T06:47:20;6.75;;;3.78;;
74523;SDS011;63074;44.696;10.358;2022-10-16T06:49:45;7.68;;;4.78;;
74523;SDS011;63074;44.696;10.358;2022-10-16T06:52:11;6.72;;;5.05;;
74523;SDS011;63074;44.696;10.358;2022-10-16T06:54:36;6.82;;;3.58;;
74523;SDS011;63074;44.696;10.358;2022-10-16T06:57:01;5.22;;;3.95;;
74523;SDS011;63074;44.696;10.358;2022-10-16T06:59:30;6.00;;;3.78;;
74523;SDS011;63074;44.696;10.358;2022-10-16T07:01:55;6.68;;;4.07;;
74523;SDS011;63074;44.696;10.358;2022-10-16T07:04:20;4.63;;;3.60;;
74523;SDS011;63074;44.696;10.358;2022-10-16T07:06:46;5.53;;;4.15;;
74523;SDS011;63074;44.696;10.358;2022-10-16T07:09:11;8.75;;;3.85;;
74523;SDS011;63074;44.696;10.358;2022-10-16T07:11:37;6.80;;;3.83;;
74523;SDS011;63074;44.696;10.358;2022-10-16T07:14:04;6.00;;;3.97;;
74523;SDS011;63074;44.696;10.358;2022-10-16T07:16:30;6.93;;;3.08;;
74523;SDS011;63074;44.696;10.358;2022-10-16T07:18:58;6.28;;;2.75;;
74523;SDS011;63074;44.696;10.358;2022-10-16T07:21:26;8.13;;;3.75;;
74523;SDS011;63074;44.696;10.358;2022-10-16T07:24:02;4.47;;;3.13;;
74523;SDS011;63074;44.696;10.358;2022-10-16T07:26:32;4.50;;;3.90;;
74523;SDS011;63074;44.696;10.358;2022-10-16T07:28:59;4.47;;;3.45;;
74523;SDS011;63074;44.696;10.358;2022-10-16T07:31:25;5.32;;;3.15;;
74523;SDS011;63074;44.696;10.358;2022-10-16T07:33:51;5.22;;;3.83;;
74523;SDS011;63074;44.696;10.358;2022-10-16T07:36:18;6.70;;;4.18;;
74523;SDS011;63074;44.696;10.358;2022-10-16T07:38:45;8.43;;;3.90;;
74523;SDS011;63074;44.696;10.358;2022-10-16T07:41:12;5.80;;;4.13;;
74523;SDS011;63074;44.696;10.358;2022-10-16T07:43:39;5.85;;;3.15;;
74523;SDS011;63074;44.696;10.358;2022-10-16T07:46:05;5.60;;;3.97;;
74523;SDS011;63074;44.696;10.358;2022-10-16T07:48:31;6.45;;;4.10;;
74523;SDS011;63074;44.696;10.358;2022-10-16T07:51:02;4.85;;;3.70;;
74523;SDS011;63074;44.696;10.358;2022-10-16T07:53:29;5.10;;;3.90;;
74523;SDS011;63074;44.696;10.358;2022-10-16T07:56:02;4.15;;;3.67;;
74523;SDS011;63074;44.696;10.358;2022-10-16T07:58:29;4.80;;;3.80;;
74523;SDS011;63074;44.696;10.358;2022-10-16T08:00:55;4.30;;;3.78;;
74523;SDS011;63074;44.696;10.358;2022-10-16T08:03:22;4.55;;;3.55;;
74523;SDS011;63074;44.696;10.358;2022-10-16T08:05:47;4.95;;;3.45;;
74523;SDS011;63074;44.696;10.358;2022-10-16T08:08:13;4.95;;;3.60;;
74523;SDS011;63074;44.696;10.358;2022-10-16T08:10:40;5.05;;;4.07;;
74523;SDS011;63074;44.696;10.358;2022-10-16T08:13:07;4.18;;;2.72;;
74523;SDS011;63074;44.696;10.358;2022-10-16T08:15:32;5.38;;;4.00;;
74523;SDS011;63074;44.696;10.358;2022-10-16T08:17:59;5.38;;;4.05;;
74523;SDS011;63074;44.696;10.358;2022-10-16T08:20:26;5.55;;;4.22;;
74523;SDS011;63074;44.696;10.358;2022-10-16T08:22:53;6.65;;;3.33;;
74523;SDS011;63074;44.696;10.358;2022-10-16T08:25:19;4.82;;;3.15;;
74523;SDS011;63074;44.696;10.358;2022-10-16T08:27:46;6.63;;;3.70;;
74523;SDS011;63074;44.696;10.358;2022-10-16T08:30:12;5.70;;;3.05;;
74523;SDS011;63074;44.696;10.358;2022-10-16T08:32:38;7.32;;;3.08;;
74523;SDS011;63074;44.696;10.358;2022-10-16T08:35:04;5.47;;;3.35;;
74523;SDS011;63074;44.696;10.358;2022-10-16T08:37:30;5.45;;;3.42;;
74523;SDS011;63074;44.696;10.358;2022-10-16T08:39:57;5.07;;;4.20;;
74523;SDS011;63074;44.696;10.358;2022-10-16T08:42:36;5.78;;;4.78;;
74523;SDS011;63074;44.696;10.358;2022-10-16T08:45:18;5.72;;;4.63;;
74523;SDS011;63074;44.696;10.358;2022-10-16T08:48:04;6.30;;;4.20;;
74523;SDS011;63074;44.696;10.358;2022-10-16T08:50:40;5.88;;;3.38;;
74523;SDS011;63074;44.696;10.358;2022-10-16T08:53:06;7.57;;;4.72;;
74523;SDS011;63074;44.696;10.358;2022-10-16T08:58:12;5.25;;;4.07;;
74523;SDS011;63074;44.696;10.358;2022-10-16T09:00:42;6.63;;;3.60;;
74523;SDS011;63074;44.696;10.358;2022-10-16T09:03:46;4.93;;;3.55;;
74523;SDS011;63074;44.696;10.358;2022-10-16T09:17:04;5.60;;;4.13;;
74523;SDS011;63074;44.696;10.358;2022-10-16T09:19:44;6.07;;;4.65;;
74523;SDS011;63074;44.696;10.358;2022-10-16T09:22:16;5.28;;;3.13;;
74523;SDS011;63074;44.696;10.358;2022-10-16T09:24:43;4.57;;;3.95;;
74523;SDS011;63074;44.696;10.358;2022-10-16T09:27:12;6.00;;;4.43;;
74523;SDS011;63074;44.696;10.358;2022-10-16T09:29:39;5.68;;;3.97;;
74523;SDS011;63074;44.696;10.358;2022-10-16T09:32:12;4.82;;;4.13;;
74523;SDS011;63074;44.696;10.358;2022-10-16T09:34:43;8.73;;;4.60;;
74523;SDS011;63074;44.696;10.358;2022-10-16T09:37:14;6.45;;;4.85;;
74523;SDS011;63074;44.696;10.358;2022-10-16T09:39:53;5.93;;;5.30;;
74523;SDS011;63074;44.696;10.358;2022-10-16T09:42:20;7.53;;;4.43;;
74523;SDS011;63074;44.696;10.358;2022-10-16T09:44:55;7.63;;;5.13;;
74523;SDS011;63074;44.696;10.358;2022-10-16T09:47:23;7.53;;;5.20;;
74523;SDS011;63074;44.696;10.358;2022-10-16T09:49:54;5.07;;;4.18;;
74523;SDS011;63074;44.696;10.358;2022-10-16T09:52:27;7.32;;;5.35;;
74523;SDS011;63074;44.696;10.358;2022-10-16T09:54:54;7.05;;;4.53;;
74523;SDS011;63074;44.696;10.358;2022-10-16T09:57:21;10.55;;;5.43;;
74523;SDS011;63074;44.696;10.358;2022-10-16T09:59:48;8.45;;;5.60;;
74523;SDS011;63074;44.696;10.358;2022-10-16T10:02:18;7.53;;;4.63;;
74523;SDS011;63074;44.696;10.358;2022-10-16T10:04:51;8.52;;;5.40;;
74523;SDS011;63074;44.696;10.358;2022-10-16T10:07:25;9.68;;;5.57;;
74523;SDS011;63074;44.696;10.358;2022-10-16T10:09:52;10.90;;;6.35;;
74523;SDS011;63074;44.696;10.358;2022-10-16T10:12:23;8.82;;;6.28;;
74523;SDS011;63074;44.696;10.358;2022-10-16T10:14:55;8.77;;;6.53;;
74523;SDS011;63074;44.696;10.358;2022-10-16T10:17:25;8.48;;;4.93;;
74523;SDS011;63074;44.696;10.358;2022-10-16T10:20:15;9.13;;;6.45;;
74523;SDS011;63074;44.696;10.358;2022-10-16T10:22:48;9.35;;;6.05;;
74523;SDS011;63074;44.696;10.358;2022-10-16T10:25:19;11.35;;;7.10;;
74523;SDS011;63074;44.696;10.358;2022-10-16T10:33:37;9.25;;;6.85;;
74523;SDS011;63074;44.696;10.358;2022-10-16T10:36:28;9.13;;;6.50;;
74523;SDS011;63074;44.696;10.358;2022-10-16T10:39:08;8.65;;;5.13;;
74523;SDS011;63074;44.696;10.358;2022-10-16T10:52:47;8.30;;;5.50;;
74523;SDS011;63074;44.696;10.358;2022-10-16T11:01:12;7.85;;;5.70;;
74523;SDS011;63074;44.696;10.358;2022-10-16T11:06:52;10.70;;;6.38;;
74523;SDS011;63074;44.696;10.358;2022-10-16T11:09:25;10.13;;;6.35;;
74523;SDS011;63074;44.696;10.358;2022-10-16T11:14:50;9.50;;;7.28;;
74523;SDS011;63074;44.696;10.358;2022-10-16T11:17:23;11.55;;;6.95;;
74523;SDS011;63074;44.696;10.358;2022-10-16T11:20:18;9.60;;;6.93;;
74523;SDS011;63074;44.696;10.358;2022-10-16T11:22:54;11.77;;;7.50;;
74523;SDS011;63074;44.696;10.358;2022-10-16T11:25:24;12.57;;;7.32;;
74523;SDS011;63074;44.696;10.358;2022-10-16T11:33:59;12.30;;;7.53;;
74523;SDS011;63074;44.696;10.358;2022-10-16T11:36:35;10.30;;;7.07;;
74523;SDS011;63074;44.696;10.358;2022-10-16T11:41:54;11.18;;;7.50;;
74523;SDS011;63074;44.696;10.358;2022-10-16T11:47:10;12.02;;;7.70;;
74523;SDS011;63074;44.696;10.358;2022-10-16T11:49:38;11.48;;;7.70;;
74523;SDS011;63074;44.696;10.358;2022-10-16T11:54:50;10.10;;;7.10;;
74523;SDS011;63074;44.696;10.358;2022-10-16T11:57:22;10.55;;;7.03;;
74523;SDS011;63074;44.696;10.358;2022-10-16T12:00:05;11.35;;;7.65;;
74523;SDS011;63074;44.696;10.358;2022-10-16T12:08:01;9.65;;;7.50;;
74523;SDS011;63074;44.696;10.358;2022-10-16T12:10:33;10.68;;;8.00;;
74523;SDS011;63074;44.696;10.358;2022-10-16T12:13:02;10.60;;;7.03;;
74523;SDS011;63074;44.696;10.358;2022-10-16T12:15:30;10.98;;;6.60;;
74523;SDS011;63074;44.696;10.358;2022-10-16T12:17:57;13.45;;;8.10;;
74523;SDS011;63074;44.696;10.358;2022-10-16T12:20:25;12.25;;;8.65;;
74523;SDS011;63074;44.696;10.358;2022-10-16T12:23:03;10.95;;;8.27;;
74523;SDS011;63074;44.696;10.358;2022-10-16T12:28:01;11.75;;;8.20;;
74523;SDS011;63074;44.696;10.358;2022-10-16T12:30:57;12.27;;;7.38;;
74523;SDS011;63074;44.696;10.358;2022-10-16T12:33:34;13.30;;;9.13;;
74523;SDS011;63074;44.696;10.358;2022-10-16T12:38:51;12.05;;;7.60;;
74523;SDS011;63074;44.696;10.358;2022-10-16T12:41:27;12.50;;;8.68;;
74523;SDS011;63074;44.696;10.358;2022-10-16T12:43:55;13.23;;;9.75;;
74523;SDS011;63074;44.696;10.358;2022-10-16T12:46:22;11.52;;;7.70;;
74523;SDS011;63074;44.696;10.358;2022-10-16T12:49:34;10.05;;;8.40;;
74523;SDS011;63074;44.696;10.358;2022-10-16T12:51:52;14.35;;;9.05;;
74523;SDS011;63074;44.696;10.358;2022-10-16T12:54:19;11.38;;;8.27;;
74523;SDS011;63074;44.696;10.358;2022-10-16T13:07:46;13.20;;;9.77;;
74523;SDS011;63074;44.696;10.358;2022-10-16T13:13:13;13.45;;;9.82;;
74523;SDS011;63074;44.696;10.358;2022-10-16T13:16:13;16.73;;;11.20;;
74523;SDS011;63074;44.696;10.358;2022-10-16T13:21:43;16.92;;;11.20;;
74523;SDS011;63074;44.696;10.358;2022-10-16T13:24:28;17.02;;;11.00;;
74523;SDS011;63074;44.696;10.358;2022-10-16T13:29:52;18.17;;;11.73;;
74523;SDS011;63074;44.696;10.358;2022-10-16T13:32:23;15.45;;;9.85;;
74523;SDS011;63074;44.696;10.358;2022-10-16T13:34:49;15.85;;;11.23;;
74523;SDS011;63074;44.696;10.358;2022-10-16T13:37:18;13.52;;;10.38;;
74523;SDS011;63074;44.696;10.358;2022-10-16T13:39:45;18.65;;;11.73;;
74523;SDS011;63074;44.696;10.358;2022-10-16T13:42:44;16.75;;;11.30;;
74523;SDS011;63074;44.696;10.358;2022-10-16T13:45:03;17.75;;;12.05;;
74523;SDS011;63074;44.696;10.358;2022-10-16T13:47:29;16.13;;;11.50;;
74523;SDS011;63074;44.696;10.358;2022-10-16T13:49:59;15.68;;;11.40;;
74523;SDS011;63074;44.696;10.358;2022-10-16T13:52:28;18.00;;;11.77;;
74523;SDS011;63074;44.696;10.358;2022-10-16T13:54:54;18.90;;;12.02;;
74523;SDS011;63074;44.696;10.358;2022-10-16T13:57:21;15.93;;;11.10;;
74523;SDS011;63074;44.696;10.358;2022-10-16T13:59:48;15.80;;;11.20;;
74523;SDS011;63074;44.696;10.358;2022-10-16T14:04:57;17.73;;;11.27;;
74523;SDS011;63074;44.696;10.358;2022-10-16T14:07:31;16.58;;;12.32;;
74523;SDS011;63074;44.696;10.358;2022-10-16T14:10:07;19.10;;;12.68;;
74523;SDS011;63074;44.696;10.358;2022-10-16T14:12:53;18.90;;;12.27;;
74523;SDS011;63074;44.696;10.358;2022-10-16T14:15:45;21.58;;;11.93;;
74523;SDS011;63074;44.696;10.358;2022-10-16T14:18:20;16.90;;;11.45;;
74523;SDS011;63074;44.696;10.358;2022-10-16T14:25:47;16.13;;;10.88;;
74523;SDS011;63074;44.696;10.358;2022-10-16T14:30:48;16.80;;;12.15;;
74523;SDS011;63074;44.696;10.358;2022-10-16T14:38:35;15.35;;;11.60;;
74523;SDS011;63074;44.696;10.358;2022-10-16T14:41:03;17.05;;;11.88;;
74523;SDS011;63074;44.696;10.358;2022-10-16T14:43:33;17.05;;;12.25;;
74523;SDS011;63074;44.696;10.358;2022-10-16T14:46:02;17.23;;;12.15;;
74523;SDS011;63074;44.696;10.358;2022-10-16T14:48:31;15.70;;;11.73;;
74523;SDS011;63074;44.696;10.358;2022-10-16T14:50:57;17.60;;;12.48;;
74523;SDS011;63074;44.696;10.358;2022-10-16T14:53:23;16.23;;;10.63;;
74523;SDS011;63074;44.696;10.358;2022-10-16T14:55:48;16.67;;;11.80;;
74523;SDS011;63074;44.696;10.358;2022-10-16T15:00:45;17.38;;;11.85;;
74523;SDS011;63074;44.696;10.358;2022-10-16T15:03:11;17.23;;;12.80;;
74523;SDS011;63074;44.696;10.358;2022-10-16T15:05:37;21.38;;;12.60;;
74523;SDS011;63074;44.696;10.358;2022-10-16T15:08:02;17.20;;;12.60;;
74523;SDS011;63074;44.696;10.358;2022-10-16T15:10:29;17.67;;;12.93;;
74523;SDS011;63074;44.696;10.358;2022-10-16T15:12:57;16.23;;;12.55;;
74523;SDS011;63074;44.696;10.358;2022-10-16T15:17:57;17.58;;;12.93;;
74523;SDS011;63074;44.696;10.358;2022-10-16T15:20:26;15.32;;;11.52;;
74523;SDS011;63074;44.696;10.358;2022-10-16T15:22:53;17.13;;;12.35;;
74523;SDS011;63074;44.696;10.358;2022-10-16T15:28:04;16.90;;;12.20;;
74523;SDS011;63074;44.696;10.358;2022-10-16T15:30:30;14.93;;;12.35;;
74523;SDS011;63074;44.696;10.358;2022-10-16T15:32:56;16.48;;;11.77;;
74523;SDS011;63074;44.696;10.358;2022-10-16T15:35:22;14.90;;;12.32;;
74523;SDS011;63074;44.696;10.358;2022-10-16T15:37:48;14.43;;;11.63;;
74523;SDS011;63074;44.696;10.358;2022-10-16T15:40:16;16.65;;;11.95;;
74523;SDS011;63074;44.696;10.358;2022-10-16T15:42:43;16.65;;;11.77;;
74523;SDS011;63074;44.696;10.358;2022-10-16T15:45:09;14.70;;;11.15;;
74523;SDS011;63074;44.696;10.358;2022-10-16T15:47:35;15.02;;;11.02;;
74523;SDS011;63074;44.696;10.358;2022-10-16T15:50:01;16.42;;;11.15;;
74523;SDS011;63074;44.696;10.358;2022-10-16T15:52:26;16.85;;;11.20;;
74523;SDS011;63074;44.696;10.358;2022-10-16T15:54:53;15.10;;;10.75;;
74523;SDS011;63074;44.696;10.358;2022-10-16T15:57:19;14.73;;;10.65;;
74523;SDS011;63074;44.696;10.358;2022-10-16T15:59:45;13.90;;;11.15;;
74523;SDS011;63074;44.696;10.358;2022-10-16T16:02:10;13.80;;;10.23;;
74523;SDS011;63074;44.696;10.358;2022-10-16T16:04:35;13.50;;;10.65;;
74523;SDS011;63074;44.696;10.358;2022-10-16T16:07:01;13.63;;;10.77;;
74523;SDS011;63074;44.696;10.358;2022-10-16T16:09:28;14.13;;;10.32;;
74523;SDS011;63074;44.696;10.358;2022-10-16T16:11:54;14.48;;;11.80;;
74523;SDS011;63074;44.696;10.358;2022-10-16T16:14:20;15.57;;;10.90;;
74523;SDS011;63074;44.696;10.358;2022-10-16T16:16:46;15.15;;;11.52;;
74523;SDS011;63074;44.696;10.358;2022-10-16T16:19:11;14.85;;;9.55;;
74523;SDS011;63074;44.696;10.358;2022-10-16T16:21:37;14.25;;;11.35;;
74523;SDS011;63074;44.696;10.358;2022-10-16T16:24:02;16.63;;;11.57;;
74523;SDS011;63074;44.696;10.358;2022-10-16T16:26:33;16.23;;;11.30;;
74523;SDS011;63074;44.696;10.358;2022-10-16T16:29:01;16.30;;;11.75;;
74523;SDS011;63074;44.696;10.358;2022-10-16T16:31:29;16.17;;;11.93;;
74523;SDS011;63074;44.696;10.358;2022-10-16T16:33:55;17.40;;;11.75;;
74523;SDS011;63074;44.696;10.358;2022-10-16T16:36:22;15.35;;;10.68;;
74523;SDS011;63074;44.696;10.358;2022-10-16T16:38:48;17.42;;;12.55;;